Aviation Digital Data Service (ADDS)

Output produced by METARs form (0734 UTC 20 October 2018)
found at http://www.aviationweather.gov/metar/data/
 
HADR 200700Z VRB02KT 9999 FEW026 27/15 Q1021
TAF HADR 200330Z 2006/2112 18005KT 9999 SCT028 
     FM2010 TL2015 04005KT
       
HAAB 200400Z 03002KT FEW025 11/10 Q1028
TAF HAAB 200330Z 2006/2112 11008KT 9999 SCT027 BKN090 
     FM2018 TL2103 04005KT
       
HAMK 200700Z 10008KT 9999 SCT020 20/12 Q1029